Time,TemperatureF,DewpointF,PressureIn,WindDirection,WindDirectionDegrees,WindSpeedMPH,WindSpeedGustMPH,Humidity,HourlyPrecipIn,Conditions,Clouds,dailyrainin,SoftwareType,DateUTC
2013-11-03 00:01:00,39.0,37.1,29.99,SSW,210,0.0,1.0,93,0.00,,,0.00,Wunderground v.1.15,2013-11-03 04:01:00,
2013-11-03 00:03:00,39.0,37.1,29.99,WSW,248,0.0,1.0,93,0.00,,,0.00,Wunderground v.1.15,2013-11-03 04:03:00,
2013-11-03 00:04:00,39.0,37.1,29.99,NW,308,3.0,3.0,93,0.00,,,0.00,Wunderground v.1.15,2013-11-03 04:04:00,
2013-11-03 00:06:00,39.1,37.2,29.99,NW,309,2.0,3.0,93,0.00,,,0.00,Wunderground v.1.15,2013-11-03 04:06:00,
2013-11-03 00:09:00,39.2,37.3,30.00,WNW,302,3.0,3.0,93,0.00,,,0.00,Wunderground v.1.15,2013-11-03 04:09:00,
2013-11-03 00:12:00,39.2,37.3,30.00,WNW,300,2.0,2.0,93,0.00,,,0.00,Wunderground v.1.15,2013-11-03 04:12:00,
2013-11-03 00:17:00,39.2,37.3,30.00,West,274,2.0,4.0,93,0.00,,,0.00,Wunderground v.1.15,2013-11-03 04:17:00,
2013-11-03 00:22:00,39.1,37.0,30.00,WNW,287,1.0,2.0,92,0.00,,,0.01,Wunderground v.1.15,2013-11-03 04:22:00,
2013-11-03 00:28:00,39.1,37.0,29.99,West,272,1.0,9.0,92,0.00,,,0.01,Wunderground v.1.15,2013-11-03 04:28:00,
2013-11-03 00:34:00,39.1,37.0,29.99,WSW,240,2.0,3.0,92,0.00,,,0.01,Wunderground v.1.15,2013-11-03 04:34:00,
2013-11-03 00:39:00,39.0,37.1,29.99,NW,311,0.0,3.0,93,0.00,,,0.01,Wunderground v.1.15,2013-11-03 04:39:00,
2013-11-03 00:45:00,38.9,36.8,30.00,West,273,1.0,1.0,92,0.00,,,0.01,Wunderground v.1.15,2013-11-03 04:45:00,
2013-11-03 00:50:00,38.8,36.7,30.00,WSW,258,0.0,1.0,92,0.00,,,0.01,Wunderground v.1.15,2013-11-03 04:50:00,
2013-11-03 00:56:00,38.5,36.4,29.99,SSW,194,0.0,1.0,92,0.00,,,0.01,Wunderground v.1.15,2013-11-03 04:56:00,
2013-11-03 01:02:00,38.2,36.4,30.00,SW,225,1.0,1.0,93,0.00,,,0.01,Wunderground v.1.15,2013-11-03 05:02:00,
2013-11-03 01:08:00,38.1,36.3,30.00,SSW,204,0.0,2.0,93,0.00,,,0.01,Wunderground v.1.15,2013-11-03 05:08:00,
2013-11-03 01:13:00,37.8,36.0,30.00,WSW,258,1.0,1.0,93,0.00,,,0.01,Wunderground v.1.15,2013-11-03 05:13:00,
2013-11-03 01:19:00,37.6,35.8,30.00,ESE,113,1.0,2.0,93,0.00,,,0.01,Wunderground v.1.15,2013-11-03 05:19:00,
2013-11-03 01:25:00,37.6,36.0,30.00,SW,232,3.0,3.0,94,0.00,,,0.01,Wunderground v.1.15,2013-11-03 05:25:00,
2013-11-03 01:30:00,37.6,36.0,30.00,NW,304,0.0,2.0,94,0.00,,,0.01,Wunderground v.1.15,2013-11-03 05:30:00,
2013-11-03 01:36:00,37.5,35.9,30.01,NW,308,2.0,4.0,94,0.00,,,0.01,Wunderground v.1.15,2013-11-03 05:36:00,
2013-11-03 01:41:00,37.4,35.8,30.01,WSW,256,2.0,2.0,94,0.00,,,0.01,Wunderground v.1.15,2013-11-03 05:41:00,
2013-11-03 01:47:00,37.4,35.8,30.01,SW,228,1.0,3.0,94,0.00,,,0.01,Wunderground v.1.15,2013-11-03 05:47:00,
2013-11-03 01:52:00,37.4,35.8,30.01,SSW,205,0.0,2.0,94,0.00,,,0.01,Wunderground v.1.15,2013-11-03 05:52:00,
2013-11-03 01:57:00,37.2,35.6,30.01,West,270,1.0,2.0,94,0.00,,,0.01,Wunderground v.1.15,2013-11-03 05:57:00,
2013-11-03 01:03:00,37.1,35.5,30.01,WNW,288,0.0,1.0,94,0.00,,,0.01,Wunderground v.1.15,2013-11-03 06:03:00,
2013-11-03 01:09:00,37.0,35.4,30.01,SW,228,1.0,3.0,94,0.00,,,0.01,Wunderground v.1.15,2013-11-03 06:09:00,
2013-11-03 01:15:00,36.9,35.3,30.01,SW,225,2.0,2.0,94,0.00,,,0.01,Wunderground v.1.15,2013-11-03 06:15:00,
2013-11-03 01:20:00,36.9,35.3,30.02,SW,225,2.0,2.0,94,0.00,,,0.01,Wunderground v.1.15,2013-11-03 06:20:00,
2013-11-03 01:26:00,36.9,35.3,30.02,WSW,246,0.0,3.0,94,0.00,,,0.01,Wunderground v.1.15,2013-11-03 06:26:00,
2013-11-03 01:31:00,36.9,35.3,30.02,WSW,250,1.0,2.0,94,0.00,,,0.01,Wunderground v.1.15,2013-11-03 06:31:00,
2013-11-03 01:37:00,36.9,35.3,30.02,WNW,287,2.0,2.0,94,0.00,,,0.01,Wunderground v.1.15,2013-11-03 06:37:00,
2013-11-03 01:42:00,37.0,35.4,30.02,WSW,250,3.0,3.0,94,0.00,,,0.01,Wunderground v.1.15,2013-11-03 06:42:00,
2013-11-03 01:48:00,37.2,35.6,30.03,SW,236,0.0,3.0,94,0.00,,,0.01,Wunderground v.1.15,2013-11-03 06:48:00,
2013-11-03 01:53:00,37.4,35.8,30.03,WSW,239,3.0,3.0,94,0.00,,,0.01,Wunderground v.1.15,2013-11-03 06:53:00,
2013-11-03 01:59:00,37.5,35.9,30.02,WSW,252,1.0,3.0,94,0.00,,,0.01,Wunderground v.1.15,2013-11-03 06:59:00,
2013-11-03 02:04:00,37.6,36.0,30.02,West,281,3.0,3.0,94,0.00,,,0.01,Wunderground v.1.15,2013-11-03 07:04:00,
2013-11-03 02:09:00,37.6,36.0,30.02,SSW,195,0.0,4.0,94,0.00,,,0.01,Wunderground v.1.15,2013-11-03 07:09:00,
2013-11-03 02:14:00,37.4,35.8,30.02,SW,225,0.0,5.0,94,0.00,,,0.01,Wunderground v.1.15,2013-11-03 07:14:00,
2013-11-03 02:19:00,37.2,35.6,30.02,SSW,193,0.0,5.0,94,0.00,,,0.01,Wunderground v.1.15,2013-11-03 07:19:00,
2013-11-03 02:24:00,37.1,35.5,30.02,WNW,288,1.0,5.0,94,0.00,,,0.01,Wunderground v.1.15,2013-11-03 07:24:00,
2013-11-03 02:29:00,37.2,35.9,30.02,NW,320,0.0,5.0,95,0.00,,,0.01,Wunderground v.1.15,2013-11-03 07:29:00,
2013-11-03 02:34:00,37.2,35.9,30.02,WSW,240,3.0,5.0,95,0.00,,,0.01,Wunderground v.1.15,2013-11-03 07:34:00,
2013-11-03 02:39:00,37.3,36.0,30.02,NNE,20,3.0,5.0,95,0.00,,,0.01,Wunderground v.1.15,2013-11-03 07:39:00,
2013-11-03 02:44:00,37.3,36.0,30.02,NW,316,2.0,6.0,95,0.00,,,0.01,Wunderground v.1.15,2013-11-03 07:44:00,
2013-11-03 02:49:00,37.4,36.1,30.03,West,274,0.0,6.0,95,0.00,,,0.01,Wunderground v.1.15,2013-11-03 07:49:00,
2013-11-03 02:54:00,37.4,35.8,30.03,WSW,257,1.0,6.0,94,0.00,,,0.01,Wunderground v.1.15,2013-11-03 07:54:00,
2013-11-03 02:59:00,37.5,35.9,30.03,SSW,195,1.0,6.0,94,0.00,,,0.01,Wunderground v.1.15,2013-11-03 07:59:00,
2013-11-03 03:04:00,37.5,35.9,30.03,SE,129,1.0,5.0,94,0.00,,,0.01,Wunderground v.1.15,2013-11-03 08:04:00,
2013-11-03 03:09:00,37.5,35.9,30.04,NW,311,3.0,5.0,94,0.00,,,0.01,Wunderground v.1.15,2013-11-03 08:09:00,
2013-11-03 03:14:00,37.5,35.9,30.04,SE,127,0.0,11.0,94,0.00,,,0.01,Wunderground v.1.15,2013-11-03 08:14:00,
2013-11-03 03:19:00,37.5,35.9,30.04,NW,304,3.0,11.0,94,0.00,,,0.01,Wunderground v.1.15,2013-11-03 08:19:00,
2013-11-03 03:24:00,37.6,36.0,30.05,WSW,238,4.0,6.0,94,0.00,,,0.01,Wunderground v.1.15,2013-11-03 08:24:00,
2013-11-03 03:29:00,37.5,35.7,30.05,WSW,252,1.0,8.0,93,0.00,,,0.01,Wunderground v.1.15,2013-11-03 08:29:00,
2013-11-03 03:34:00,37.6,35.5,30.05,WSW,250,5.0,6.0,92,0.00,,,0.01,Wunderground v.1.15,2013-11-03 08:34:00,
2013-11-03 03:39:00,37.6,35.5,30.05,SW,233,1.0,10.0,92,0.00,,,0.01,Wunderground v.1.15,2013-11-03 08:39:00,
2013-11-03 03:44:00,37.5,35.4,30.05,NNW,334,2.0,9.0,92,0.00,,,0.01,Wunderground v.1.15,2013-11-03 08:44:00,
2013-11-03 03:49:00,37.5,35.7,30.05,NNW,332,1.0,9.0,93,0.00,,,0.01,Wunderground v.1.15,2013-11-03 08:49:00,
2013-11-03 03:54:00,37.5,35.7,30.06,West,276,2.0,9.0,93,0.00,,,0.01,Wunderground v.1.15,2013-11-03 08:54:00,
2013-11-03 03:59:00,37.5,35.7,30.06,SSW,200,1.0,9.0,93,0.00,,,0.01,Wunderground v.1.15,2013-11-03 08:59:00,
2013-11-03 04:04:00,37.4,35.6,30.06,West,267,1.0,7.0,93,0.00,,,0.01,Wunderground v.1.15,2013-11-03 09:04:00,
2013-11-03 04:09:00,37.3,35.7,30.06,WNW,290,3.0,10.0,94,0.00,,,0.01,Wunderground v.1.15,2013-11-03 09:09:00,
2013-11-03 04:14:00,37.3,35.7,30.06,SSE,156,1.0,4.0,94,0.00,,,0.01,Wunderground v.1.15,2013-11-03 09:14:00,
2013-11-03 04:19:00,37.2,35.6,30.06,SW,224,0.0,7.0,94,0.00,,,0.01,Wunderground v.1.15,2013-11-03 09:19:00,
2013-11-03 04:24:00,37.2,35.6,30.06,West,269,4.0,6.0,94,0.00,,,0.01,Wunderground v.1.15,2013-11-03 09:24:00,
2013-11-03 04:29:00,37.1,35.5,30.07,WNW,288,0.0,7.0,94,0.00,,,0.01,Wunderground v.1.15,2013-11-03 09:29:00,
2013-11-03 04:34:00,37.1,35.5,30.07,NW,314,1.0,7.0,94,0.00,,,0.01,Wunderground v.1.15,2013-11-03 09:34:00,
2013-11-03 04:39:00,37.1,35.5,30.07,WSW,250,0.0,7.0,94,0.00,,,0.01,Wunderground v.1.15,2013-11-03 09:39:00,
2013-11-03 04:44:00,37.1,35.5,30.07,WNW,302,1.0,7.0,94,0.00,,,0.01,Wunderground v.1.15,2013-11-03 09:44:00,
2013-11-03 04:49:00,37.0,35.4,30.08,WSW,257,2.0,7.0,94,0.00,,,0.01,Wunderground v.1.15,2013-11-03 09:49:00,
2013-11-03 04:54:00,37.1,35.8,30.08,WSW,258,0.0,4.0,95,0.00,,,0.01,Wunderground v.1.15,2013-11-03 09:54:00,
2013-11-03 04:59:00,37.1,35.8,30.08,NW,312,2.0,5.0,95,0.00,,,0.01,Wunderground v.1.15,2013-11-03 09:59:00,
2013-11-03 05:04:00,37.1,35.8,30.09,WSW,249,4.0,4.0,95,0.00,,,0.01,Wunderground v.1.15,2013-11-03 10:04:00,
2013-11-03 05:09:00,37.1,35.8,30.09,ESE,113,1.0,5.0,95,0.00,,,0.01,Wunderground v.1.15,2013-11-03 10:09:00,
2013-11-03 05:14:00,37.1,35.8,30.09,NW,311,4.0,4.0,95,0.00,,,0.01,Wunderground v.1.15,2013-11-03 10:14:00,
2013-11-03 05:19:00,37.1,35.8,30.09,West,264,3.0,8.0,95,0.00,,,0.01,Wunderground v.1.15,2013-11-03 10:19:00,
2013-11-03 05:24:00,37.0,35.7,30.09,NW,325,2.0,4.0,95,0.00,,,0.01,Wunderground v.1.15,2013-11-03 10:24:00,
2013-11-03 05:29:00,37.0,35.7,30.10,NNW,346,3.0,6.0,95,0.00,,,0.01,Wunderground v.1.15,2013-11-03 10:29:00,
2013-11-03 05:34:00,37.1,35.8,30.10,WNW,293,0.0,7.0,95,0.00,,,0.01,Wunderground v.1.15,2013-11-03 10:34:00,
2013-11-03 05:39:00,37.1,35.8,30.10,NW,305,5.0,7.0,95,0.00,,,0.01,Wunderground v.1.15,2013-11-03 10:39:00,
2013-11-03 05:44:00,37.0,36.0,30.10,SW,222,1.0,7.0,96,0.00,,,0.01,Wunderground v.1.15,2013-11-03 10:44:00,
2013-11-03 05:49:00,37.1,36.1,30.10,West,264,0.0,7.0,96,0.00,,,0.01,Wunderground v.1.15,2013-11-03 10:49:00,
2013-11-03 05:54:00,37.1,36.1,30.11,WNW,297,3.0,5.0,96,0.00,,,0.01,Wunderground v.1.15,2013-11-03 10:54:00,
2013-11-03 05:59:00,37.1,36.1,30.11,WNW,300,6.0,6.0,96,0.00,,,0.01,Wunderground v.1.15,2013-11-03 10:59:00,
2013-11-03 06:04:00,37.1,36.1,30.11,NW,314,1.0,6.0,96,0.00,,,0.01,Wunderground v.1.15,2013-11-03 11:04:00,
2013-11-03 06:09:00,37.1,36.1,30.11,WSW,256,1.0,6.0,96,0.00,,,0.01,Wunderground v.1.15,2013-11-03 11:09:00,
2013-11-03 06:14:00,37.1,36.1,30.12,SW,219,0.0,5.0,96,0.00,,,0.01,Wunderground v.1.15,2013-11-03 11:14:00,
2013-11-03 06:19:00,37.1,36.1,30.12,NW,316,3.0,6.0,96,0.00,,,0.01,Wunderground v.1.15,2013-11-03 11:19:00,
2013-11-03 06:24:00,37.1,36.1,30.12,NNW,348,1.0,5.0,96,0.00,,,0.01,Wunderground v.1.15,2013-11-03 11:24:00,
2013-11-03 06:29:00,37.1,36.1,30.13,NNW,330,1.0,6.0,96,0.00,,,0.01,Wunderground v.1.15,2013-11-03 11:29:00,
2013-11-03 06:34:00,37.1,36.1,30.13,WNW,300,0.0,6.0,96,0.00,,,0.01,Wunderground v.1.15,2013-11-03 11:34:00,
2013-11-03 06:39:00,37.1,36.1,30.14,NW,320,2.0,6.0,96,0.00,,,0.01,Wunderground v.1.15,2013-11-03 11:39:00,
2013-11-03 06:44:00,37.1,36.1,30.14,SSW,210,2.0,8.0,96,0.00,,,0.01,Wunderground v.1.15,2013-11-03 11:44:00,
2013-11-03 06:49:00,37.1,36.1,30.14,WSW,250,1.0,8.0,96,0.00,,,0.01,Wunderground v.1.15,2013-11-03 11:49:00,
2013-11-03 06:54:00,37.0,36.0,30.14,West,266,2.0,9.0,96,0.00,,,0.01,Wunderground v.1.15,2013-11-03 11:54:00,
2013-11-03 06:59:00,37.0,36.0,30.14,WNW,296,3.0,9.0,96,0.00,,,0.01,Wunderground v.1.15,2013-11-03 11:59:00,
2013-11-03 07:04:00,37.0,35.7,30.15,NNW,328,3.0,9.0,95,0.00,,,0.01,Wunderground v.1.15,2013-11-03 12:04:00,
2013-11-03 07:09:00,37.0,35.7,30.15,NE,53,4.0,9.0,95,0.00,,,0.01,Wunderground v.1.15,2013-11-03 12:09:00,
2013-11-03 07:14:00,37.1,35.8,30.16,NW,304,0.0,6.0,95,0.00,,,0.01,Wunderground v.1.15,2013-11-03 12:14:00,
2013-11-03 07:19:00,37.1,35.8,30.16,WNW,298,1.0,7.0,95,0.00,,,0.01,Wunderground v.1.15,2013-11-03 12:19:00,
2013-11-03 07:24:00,37.1,35.8,30.17,WNW,298,1.0,7.0,95,0.00,,,0.01,Wunderground v.1.15,2013-11-03 12:24:00,
2013-11-03 07:29:00,37.1,35.8,30.17,NNE,30,1.0,7.0,95,0.00,,,0.01,Wunderground v.1.15,2013-11-03 12:29:00,
2013-11-03 07:34:00,37.1,35.8,30.17,WNW,300,0.0,5.0,95,0.00,,,0.01,Wunderground v.1.15,2013-11-03 12:34:00,
2013-11-03 07:39:00,37.1,35.8,30.18,WNW,290,2.0,5.0,95,0.00,,,0.01,Wunderground v.1.15,2013-11-03 12:39:00,
2013-11-03 07:44:00,37.1,35.8,30.18,WNW,285,4.0,8.0,95,0.00,,,0.01,Wunderground v.1.15,2013-11-03 12:44:00,
2013-11-03 07:49:00,37.2,35.6,30.18,North,359,0.0,8.0,94,0.00,,,0.01,Wunderground v.1.15,2013-11-03 12:49:00,
2013-11-03 07:54:00,37.3,35.7,30.18,North,352,2.0,4.0,94,0.00,,,0.01,Wunderground v.1.15,2013-11-03 12:54:00,
2013-11-03 07:59:00,37.3,35.7,30.18,NNW,330,0.0,6.0,94,0.00,,,0.01,Wunderground v.1.15,2013-11-03 12:59:00,
2013-11-03 08:04:00,37.3,35.7,30.19,NNW,328,2.0,8.0,94,0.00,,,0.01,Wunderground v.1.15,2013-11-03 13:04:00,
2013-11-03 08:09:00,37.2,35.4,30.19,NW,308,1.0,8.0,93,0.00,,,0.01,Wunderground v.1.15,2013-11-03 13:09:00,
2013-11-03 08:14:00,37.4,35.8,30.20,NNW,338,1.0,2.0,94,0.00,,,0.01,Wunderground v.1.15,2013-11-03 13:14:00,
2013-11-03 08:19:00,37.4,35.6,30.21,SSW,205,3.0,6.0,93,0.00,,,0.01,Wunderground v.1.15,2013-11-03 13:19:00,
2013-11-03 08:24:00,37.4,35.6,30.21,WNW,293,0.0,6.0,93,0.00,,,0.01,Wunderground v.1.15,2013-11-03 13:24:00,
2013-11-03 08:29:00,37.5,35.4,30.21,NW,324,1.0,6.0,92,0.00,,,0.01,Wunderground v.1.15,2013-11-03 13:29:00,
2013-11-03 08:34:00,37.5,35.4,30.22,West,274,3.0,6.0,92,0.00,,,0.01,Wunderground v.1.15,2013-11-03 13:34:00,
2013-11-03 08:39:00,37.6,35.2,30.22,NNW,335,1.0,6.0,91,0.00,,,0.01,Wunderground v.1.15,2013-11-03 13:39:00,
2013-11-03 08:44:00,37.7,35.6,30.22,NW,318,3.0,4.0,92,0.00,,,0.01,Wunderground v.1.15,2013-11-03 13:44:00,
2013-11-03 08:49:00,37.8,35.4,30.22,North,359,4.0,5.0,91,0.00,,,0.01,Wunderground v.1.15,2013-11-03 13:49:00,
2013-11-03 08:54:00,38.0,35.6,30.22,WNW,302,3.0,5.0,91,0.00,,,0.01,Wunderground v.1.15,2013-11-03 13:54:00,
2013-11-03 08:59:00,38.0,35.3,30.22,NNW,342,2.0,6.0,90,0.00,,,0.01,Wunderground v.1.15,2013-11-03 13:59:00,
2013-11-03 09:04:00,38.1,35.4,30.22,NW,316,1.0,6.0,90,0.00,,,0.01,Wunderground v.1.15,2013-11-03 14:04:00,
2013-11-03 09:09:00,38.1,35.4,30.23,West,267,0.0,6.0,90,0.00,,,0.01,Wunderground v.1.15,2013-11-03 14:09:00,
2013-11-03 09:14:00,38.2,35.5,30.23,West,264,3.0,5.0,90,0.00,,,0.01,Wunderground v.1.15,2013-11-03 14:14:00,
2013-11-03 09:19:00,38.3,35.6,30.23,NW,316,1.0,5.0,90,0.00,,,0.01,Wunderground v.1.15,2013-11-03 14:19:00,
2013-11-03 09:24:00,38.4,35.4,30.23,NW,318,1.0,3.0,89,0.00,,,0.01,Wunderground v.1.15,2013-11-03 14:24:00,
2013-11-03 09:29:00,38.3,35.3,30.24,North,354,1.0,4.0,89,0.00,,,0.01,Wunderground v.1.15,2013-11-03 14:29:00,
2013-11-03 09:34:00,38.2,35.0,30.24,NW,314,3.0,5.0,88,0.00,,,0.01,Wunderground v.1.15,2013-11-03 14:34:00,
2013-11-03 09:39:00,38.3,35.3,30.24,WSW,250,1.0,5.0,89,0.00,,,0.01,Wunderground v.1.15,2013-11-03 14:39:00,
2013-11-03 09:44:00,38.6,35.6,30.24,West,270,1.0,4.0,89,0.00,,,0.01,Wunderground v.1.15,2013-11-03 14:44:00,
2013-11-03 09:49:00,39.0,35.5,30.25,NW,306,0.0,5.0,87,0.00,,,0.01,Wunderground v.1.15,2013-11-03 14:49:00,
2013-11-03 09:54:00,39.3,36.0,30.25,NW,307,1.0,4.0,88,0.00,,,0.01,Wunderground v.1.15,2013-11-03 14:54:00,
2013-11-03 09:59:00,40.0,35.9,30.25,NW,319,2.0,10.0,85,0.00,,,0.01,Wunderground v.1.15,2013-11-03 14:59:00,
2013-11-03 10:04:00,40.9,36.1,30.25,NW,312,2.0,12.0,83,0.00,,,0.01,Wunderground v.1.15,2013-11-03 15:04:00,
2013-11-03 10:09:00,41.1,35.4,30.25,WNW,290,2.0,12.0,80,0.00,,,0.01,Wunderground v.1.15,2013-11-03 15:09:00,
2013-11-03 10:14:00,40.6,34.6,30.26,NNE,12,10.0,12.0,79,0.00,,,0.01,Wunderground v.1.15,2013-11-03 15:14:00,
2013-11-03 10:19:00,40.3,34.9,30.26,North,1,2.0,12.0,81,0.00,,,0.01,Wunderground v.1.15,2013-11-03 15:19:00,
2013-11-03 10:24:00,40.3,35.2,30.27,NNW,340,3.0,5.0,82,0.00,,,0.01,Wunderground v.1.15,2013-11-03 15:24:00,
2013-11-03 10:29:00,40.3,34.9,30.27,North,352,1.0,8.0,81,0.00,,,0.01,Wunderground v.1.15,2013-11-03 15:29:00,
2013-11-03 10:34:00,40.2,35.4,30.27,West,262,3.0,6.0,83,0.00,,,0.01,Wunderground v.1.15,2013-11-03 15:34:00,
2013-11-03 10:39:00,40.2,35.4,30.27,NNW,347,0.0,6.0,83,0.00,,,0.01,Wunderground v.1.15,2013-11-03 15:39:00,
2013-11-03 10:44:00,40.2,35.1,30.28,NW,326,0.0,6.0,82,0.00,,,0.01,Wunderground v.1.15,2013-11-03 15:44:00,
2013-11-03 10:49:00,40.2,35.4,30.28,NNW,328,1.0,6.0,83,0.00,,,0.01,Wunderground v.1.15,2013-11-03 15:49:00,
2013-11-03 10:54:00,40.3,34.9,30.28,WSW,243,4.0,6.0,81,0.00,,,0.01,Wunderground v.1.15,2013-11-03 15:54:00,
2013-11-03 10:59:00,40.2,34.5,30.28,NW,309,3.0,7.0,80,0.00,,,0.01,Wunderground v.1.15,2013-11-03 15:59:00,
2013-11-03 11:04:00,40.4,34.7,30.28,NNW,333,4.0,6.0,80,0.00,,,0.01,Wunderground v.1.15,2013-11-03 16:04:00,
2013-11-03 11:09:00,41.1,35.4,30.28,North,349,4.0,6.0,80,0.00,,,0.01,Wunderground v.1.15,2013-11-03 16:09:00,
2013-11-03 11:14:00,42.1,34.4,30.28,WNW,293,4.0,9.0,74,0.00,,,0.01,Wunderground v.1.15,2013-11-03 16:14:00,
2013-11-03 11:19:00,41.8,34.5,30.28,NW,314,4.0,9.0,75,0.00,,,0.01,Wunderground v.1.15,2013-11-03 16:19:00,
2013-11-03 11:24:00,41.6,34.3,30.28,North,9,2.0,9.0,75,0.00,,,0.01,Wunderground v.1.15,2013-11-03 16:24:00,
2013-11-03 11:29:00,41.5,34.8,30.27,NNW,348,2.0,9.0,77,0.00,,,0.01,Wunderground v.1.15,2013-11-03 16:29:00,
2013-11-03 11:34:00,42.2,35.2,30.27,NW,316,8.0,9.0,76,0.00,,,0.01,Wunderground v.1.15,2013-11-03 16:34:00,
2013-11-03 11:39:00,43.0,36.0,30.27,NW,307,3.0,10.0,76,0.00,,,0.01,Wunderground v.1.15,2013-11-03 16:39:00,
2013-11-03 11:44:00,43.5,35.8,30.27,NNW,330,2.0,10.0,74,0.00,,,0.01,Wunderground v.1.15,2013-11-03 16:44:00,
2013-11-03 11:49:00,44.0,35.2,30.27,West,269,5.0,10.0,71,0.00,,,0.01,Wunderground v.1.15,2013-11-03 16:49:00,
2013-11-03 11:54:00,43.7,34.2,30.27,NNW,342,1.0,9.0,69,0.00,,,0.01,Wunderground v.1.15,2013-11-03 16:54:00,
2013-11-03 11:59:00,43.3,34.5,30.27,WNW,297,5.0,9.0,71,0.00,,,0.01,Wunderground v.1.15,2013-11-03 16:59:00,
2013-11-03 12:04:00,43.3,34.9,30.27,WNW,302,2.0,5.0,72,0.00,,,0.01,Wunderground v.1.15,2013-11-03 17:04:00,
2013-11-03 12:09:00,43.1,33.6,30.27,NW,323,1.0,9.0,69,0.00,,,0.01,Wunderground v.1.15,2013-11-03 17:09:00,
2013-11-03 12:14:00,43.1,34.3,30.27,NW,311,1.0,6.0,71,0.00,,,0.01,Wunderground v.1.15,2013-11-03 17:14:00,
2013-11-03 12:19:00,43.6,35.2,30.27,North,5,3.0,6.0,72,0.00,,,0.01,Wunderground v.1.15,2013-11-03 17:19:00,
2013-11-03 12:24:00,43.4,33.5,30.27,West,262,2.0,6.0,68,0.00,,,0.01,Wunderground v.1.15,2013-11-03 17:24:00,
2013-11-03 12:29:00,43.0,33.5,30.27,North,8,3.0,7.0,69,0.00,,,0.01,Wunderground v.1.15,2013-11-03 17:29:00,
2013-11-03 12:34:00,42.8,34.0,30.27,WNW,300,1.0,7.0,71,0.00,,,0.01,Wunderground v.1.15,2013-11-03 17:34:00,
2013-11-03 12:39:00,42.7,33.9,30.27,NW,322,3.0,7.0,71,0.00,,,0.01,Wunderground v.1.15,2013-11-03 17:39:00,
2013-11-03 12:44:00,42.7,33.9,30.27,North,354,3.0,6.0,71,0.00,,,0.01,Wunderground v.1.15,2013-11-03 17:44:00,
2013-11-03 12:49:00,43.1,33.3,30.27,NW,316,2.0,7.0,68,0.00,,,0.01,Wunderground v.1.15,2013-11-03 17:49:00,
2013-11-03 12:54:00,43.3,33.4,30.27,NW,307,1.0,6.0,68,0.00,,,0.01,Wunderground v.1.15,2013-11-03 17:54:00,
2013-11-03 12:59:00,43.3,34.2,30.27,NNE,15,2.0,6.0,70,0.00,,,0.01,Wunderground v.1.15,2013-11-03 17:59:00,
2013-11-03 13:04:00,43.1,33.3,30.27,West,276,3.0,6.0,68,0.00,,,0.01,Wunderground v.1.15,2013-11-03 18:04:00,
2013-11-03 13:09:00,42.7,32.9,30.27,NNE,30,1.0,11.0,68,0.00,,,0.01,Wunderground v.1.15,2013-11-03 18:09:00,
2013-11-03 13:14:00,42.7,33.2,30.27,NW,326,3.0,8.0,69,0.00,,,0.01,Wunderground v.1.15,2013-11-03 18:14:00,
2013-11-03 13:19:00,42.9,33.8,30.27,WNW,301,4.0,8.0,70,0.00,,,0.01,Wunderground v.1.15,2013-11-03 18:19:00,
2013-11-03 13:24:00,42.8,33.0,30.27,NW,314,2.0,5.0,68,0.00,,,0.01,Wunderground v.1.15,2013-11-03 18:24:00,
2013-11-03 13:29:00,43.1,33.6,30.27,NNE,13,0.0,5.0,69,0.00,,,0.01,Wunderground v.1.15,2013-11-03 18:29:00,
2013-11-03 13:34:00,43.2,33.0,30.27,WNW,298,1.0,4.0,67,0.00,,,0.01,Wunderground v.1.15,2013-11-03 18:34:00,
2013-11-03 13:39:00,43.5,34.0,30.27,NNE,23,0.0,4.0,69,0.00,,,0.01,Wunderground v.1.15,2013-11-03 18:39:00,
2013-11-03 13:44:00,43.9,33.6,30.27,ENE,61,2.0,7.0,67,0.00,,,0.01,Wunderground v.1.15,2013-11-03 18:44:00,
2013-11-03 13:49:00,43.7,33.1,30.27,NNW,340,1.0,7.0,66,0.00,,,0.01,Wunderground v.1.15,2013-11-03 18:49:00,
2013-11-03 13:55:00,43.5,33.3,30.27,NNW,330,0.0,3.0,67,0.00,,,0.01,Wunderground v.1.15,2013-11-03 18:55:00,
2013-11-03 14:00:00,43.3,33.1,30.27,WNW,295,2.0,2.0,67,0.00,,,0.01,Wunderground v.1.15,2013-11-03 19:00:00,
2013-11-03 14:05:00,43.0,32.8,30.27,West,280,0.0,3.0,67,0.00,,,0.01,Wunderground v.1.15,2013-11-03 19:05:00,
2013-11-03 14:10:00,42.8,33.0,30.27,North,352,1.0,2.0,68,0.00,,,0.01,Wunderground v.1.15,2013-11-03 19:10:00,
2013-11-03 14:15:00,42.7,32.9,30.27,NW,325,1.0,5.0,68,0.00,,,0.01,Wunderground v.1.15,2013-11-03 19:15:00,
2013-11-03 14:20:00,42.5,33.0,30.27,North,357,1.0,9.0,69,0.00,,,0.01,Wunderground v.1.15,2013-11-03 19:20:00,
2013-11-03 14:25:00,42.5,33.0,30.28,NNW,333,3.0,4.0,69,0.00,,,0.01,Wunderground v.1.15,2013-11-03 19:25:00,
2013-11-03 14:30:00,42.6,33.5,30.28,NW,305,0.0,5.0,70,0.00,,,0.01,Wunderground v.1.15,2013-11-03 19:30:00,
2013-11-03 14:35:00,42.8,33.3,30.28,NNW,348,2.0,3.0,69,0.00,,,0.01,Wunderground v.1.15,2013-11-03 19:35:00,
2013-11-03 14:40:00,42.9,33.1,30.28,West,277,1.0,5.0,68,0.00,,,0.01,Wunderground v.1.15,2013-11-03 19:40:00,
2013-11-03 14:45:00,43.0,33.2,30.28,NW,319,2.0,6.0,68,0.00,,,0.01,Wunderground v.1.15,2013-11-03 19:45:00,
2013-11-03 14:50:00,43.1,33.3,30.28,North,349,0.0,6.0,68,0.00,,,0.01,Wunderground v.1.15,2013-11-03 19:50:00,
2013-11-03 14:54:00,43.1,32.9,30.28,WNW,300,0.0,4.0,67,0.00,,,0.01,Wunderground v.1.15,2013-11-03 19:54:00,
2013-11-03 14:59:00,42.9,31.9,30.28,NNW,338,1.0,6.0,65,0.00,,,0.01,Wunderground v.1.15,2013-11-03 19:59:00,
2013-11-03 15:04:00,42.9,31.9,30.28,SW,235,1.0,3.0,65,0.00,,,0.01,Wunderground v.1.15,2013-11-03 20:04:00,
2013-11-03 15:09:00,42.8,32.6,30.29,ENE,57,2.0,6.0,67,0.00,,,0.01,Wunderground v.1.15,2013-11-03 20:09:00,
2013-11-03 15:14:00,42.8,32.6,30.29,WNW,294,4.0,5.0,67,0.00,,,0.01,Wunderground v.1.15,2013-11-03 20:14:00,
2013-11-03 15:19:00,42.6,32.8,30.29,NNE,33,2.0,6.0,68,0.00,,,0.01,Wunderground v.1.15,2013-11-03 20:19:00,
2013-11-03 15:24:00,42.5,33.0,30.29,NW,325,4.0,5.0,69,0.00,,,0.01,Wunderground v.1.15,2013-11-03 20:24:00,
2013-11-03 15:29:00,42.4,33.3,30.29,NW,312,4.0,5.0,70,0.00,,,0.01,Wunderground v.1.15,2013-11-03 20:29:00,
2013-11-03 15:34:00,42.3,33.6,30.29,NW,326,2.0,7.0,71,0.00,,,0.01,Wunderground v.1.15,2013-11-03 20:34:00,
2013-11-03 15:39:00,42.3,33.9,30.29,NNE,17,2.0,7.0,72,0.00,,,0.01,Wunderground v.1.15,2013-11-03 20:39:00,
2013-11-03 15:44:00,42.3,33.6,30.29,NW,325,2.0,6.0,71,0.00,,,0.01,Wunderground v.1.15,2013-11-03 20:44:00,
2013-11-03 15:49:00,42.3,33.9,30.29,NW,314,0.0,6.0,72,0.00,,,0.01,Wunderground v.1.15,2013-11-03 20:49:00,
2013-11-03 15:54:00,42.2,33.5,30.30,NNW,328,2.0,6.0,71,0.00,,,0.01,Wunderground v.1.15,2013-11-03 20:54:00,
2013-11-03 15:59:00,42.1,33.4,30.29,North,7,0.0,6.0,71,0.00,,,0.01,Wunderground v.1.15,2013-11-03 20:59:00,
2013-11-03 16:04:00,42.3,34.3,30.29,NW,308,1.0,2.0,73,0.00,,,0.01,Wunderground v.1.15,2013-11-03 21:04:00,
2013-11-03 16:10:00,42.3,33.6,30.30,NW,319,2.0,2.0,71,0.00,,,0.01,Wunderground v.1.15,2013-11-03 21:10:00,
2013-11-03 16:15:00,42.2,33.1,30.29,NW,308,1.0,3.0,70,0.00,,,0.01,Wunderground v.1.15,2013-11-03 21:15:00,
2013-11-03 16:20:00,42.3,33.2,30.29,North,1,2.0,3.0,70,0.00,,,0.01,Wunderground v.1.15,2013-11-03 21:20:00,
2013-11-03 16:25:00,42.3,33.6,30.29,WNW,301,1.0,4.0,71,0.00,,,0.01,Wunderground v.1.15,2013-11-03 21:25:00,
2013-11-03 16:30:00,42.1,32.7,30.29,North,356,0.0,1.0,69,0.00,,,0.01,Wunderground v.1.15,2013-11-03 21:30:00,
2013-11-03 16:35:00,41.9,32.5,30.29,NW,304,0.0,4.0,69,0.00,,,0.01,Wunderground v.1.15,2013-11-03 21:35:00,
2013-11-03 16:40:00,41.7,31.9,30.29,NNW,328,2.0,2.0,68,0.00,,,0.01,Wunderground v.1.15,2013-11-03 21:40:00,
2013-11-03 16:45:00,41.5,31.7,30.29,NNW,329,1.0,4.0,68,0.00,,,0.01,Wunderground v.1.15,2013-11-03 21:45:00,
2013-11-03 16:50:00,41.4,31.6,30.29,NNW,342,0.0,1.0,68,0.00,,,0.01,Wunderground v.1.15,2013-11-03 21:50:00,
2013-11-03 16:55:00,41.5,32.1,30.29,NNE,25,0.0,2.0,69,0.00,,,0.01,Wunderground v.1.15,2013-11-03 21:55:00,
2013-11-03 17:00:00,41.6,32.2,30.29,North,349,0.0,0.0,69,0.00,,,0.01,Wunderground v.1.15,2013-11-03 22:00:00,
2013-11-03 17:05:00,41.6,32.2,30.29,NW,315,0.0,4.0,69,0.00,,,0.01,Wunderground v.1.15,2013-11-03 22:05:00,
2013-11-03 17:10:00,41.5,32.1,30.30,NNW,338,3.0,3.0,69,0.00,,,0.01,Wunderground v.1.15,2013-11-03 22:10:00,
2013-11-03 17:15:00,41.5,32.1,30.30,North,11,2.0,3.0,69,0.00,,,0.01,Wunderground v.1.15,2013-11-03 22:15:00,
2013-11-03 17:20:00,41.4,32.3,30.30,NNW,342,0.0,1.0,70,0.00,,,0.01,Wunderground v.1.15,2013-11-03 22:20:00,
2013-11-03 17:25:00,41.3,32.2,30.30,NNW,330,1.0,4.0,70,0.00,,,0.01,Wunderground v.1.15,2013-11-03 22:25:00,
2013-11-03 17:30:00,41.2,32.2,30.31,NNW,342,0.0,1.0,70,0.00,,,0.01,Wunderground v.1.15,2013-11-03 22:30:00,
2013-11-03 17:35:00,41.1,32.1,30.31,North,11,0.0,2.0,70,0.00,,,0.01,Wunderground v.1.15,2013-11-03 22:35:00,
2013-11-03 17:40:00,41.1,32.1,30.32,North,11,0.0,0.0,70,0.00,,,0.01,Wunderground v.1.15,2013-11-03 22:40:00,
2013-11-03 17:45:00,40.9,31.9,30.32,NW,312,0.0,3.0,70,0.00,,,0.01,Wunderground v.1.15,2013-11-03 22:45:00,
2013-11-03 17:50:00,40.8,32.1,30.32,NW,326,0.0,0.0,71,0.00,,,0.01,Wunderground v.1.15,2013-11-03 22:50:00,
2013-11-03 17:55:00,40.6,31.9,30.32,NNW,335,0.0,1.0,71,0.00,,,0.01,Wunderground v.1.15,2013-11-03 22:55:00,
2013-11-03 18:00:00,40.3,31.3,30.32,North,1,0.0,0.0,70,0.00,,,0.01,Wunderground v.1.15,2013-11-03 23:00:00,
2013-11-03 18:05:00,40.0,31.4,30.32,NW,316,1.0,2.0,71,0.00,,,0.01,Wunderground v.1.15,2013-11-03 23:05:00,
2013-11-03 18:10:00,39.7,31.1,30.33,NW,316,0.0,0.0,71,0.00,,,0.01,Wunderground v.1.15,2013-11-03 23:10:00,
2013-11-03 18:15:00,39.3,31.0,30.33,NW,316,0.0,0.0,72,0.00,,,0.01,Wunderground v.1.15,2013-11-03 23:15:00,
2013-11-03 18:20:00,39.0,31.1,30.33,NW,316,0.0,0.0,73,0.00,,,0.01,Wunderground v.1.15,2013-11-03 23:20:00,
2013-11-03 18:25:00,38.9,31.0,30.33,NNW,333,0.0,0.0,73,0.00,,,0.01,Wunderground v.1.15,2013-11-03 23:25:00,
2013-11-03 18:30:00,39.0,31.7,30.34,East,91,0.0,0.0,75,0.00,,,0.01,Wunderground v.1.15,2013-11-03 23:30:00,
2013-11-03 18:35:00,39.1,31.5,30.34,West,272,0.0,1.0,74,0.00,,,0.01,Wunderground v.1.15,2013-11-03 23:35:00,
2013-11-03 18:40:00,39.2,32.3,30.34,West,272,0.0,0.0,76,0.00,,,0.01,Wunderground v.1.15,2013-11-03 23:40:00,
2013-11-03 18:45:00,39.3,31.7,30.34,NNW,344,1.0,1.0,74,0.00,,,0.01,Wunderground v.1.15,2013-11-03 23:45:00,
2013-11-03 18:50:00,39.5,31.9,30.35,North,5,1.0,2.0,74,0.00,,,0.01,Wunderground v.1.15,2013-11-03 23:50:00,
2013-11-03 18:55:00,39.6,31.7,30.35,North,5,0.0,2.0,73,0.00,,,0.01,Wunderground v.1.15,2013-11-03 23:55:00,
2013-11-03 19:00:00,39.7,32.1,30.35,North,349,2.0,2.0,74,0.00,,,0.01,Wunderground v.1.15,2013-11-04 00:00:00,
2013-11-03 19:05:00,39.7,32.1,30.35,NW,319,0.0,2.0,74,0.00,,,0.01,Wunderground v.1.15,2013-11-04 00:05:00,
2013-11-03 19:10:00,39.6,32.0,30.35,NW,320,0.0,1.0,74,0.00,,,0.01,Wunderground v.1.15,2013-11-04 00:10:00,
2013-11-03 19:15:00,39.4,31.5,30.35,NNE,25,2.0,3.0,73,0.00,,,0.01,Wunderground v.1.15,2013-11-04 00:15:00,
2013-11-03 19:20:00,39.2,31.3,30.36,NNE,15,0.0,0.0,73,0.00,,,0.01,Wunderground v.1.15,2013-11-04 00:20:00,
2013-11-03 19:25:00,38.8,30.9,30.36,NW,318,0.0,2.0,73,0.00,,,0.01,Wunderground v.1.15,2013-11-04 00:25:00,
2013-11-03 19:30:00,38.3,30.7,30.36,NW,318,0.0,0.0,74,0.00,,,0.01,Wunderground v.1.15,2013-11-04 00:30:00,
2013-11-03 19:35:00,38.0,30.4,30.36,NW,318,0.0,0.0,74,0.00,,,0.01,Wunderground v.1.15,2013-11-04 00:35:00,
2013-11-03 19:40:00,37.6,30.1,30.36,NW,318,0.0,0.0,74,0.00,,,0.01,Wunderground v.1.15,2013-11-04 00:40:00,
2013-11-03 19:45:00,37.1,30.2,30.36,NW,318,0.0,0.0,76,0.00,,,0.01,Wunderground v.1.15,2013-11-04 00:45:00,
2013-11-03 19:50:00,36.7,29.8,30.36,NW,318,0.0,0.0,76,0.00,,,0.01,Wunderground v.1.15,2013-11-04 00:50:00,
2013-11-03 19:55:00,36.3,29.5,30.36,NW,318,0.0,0.0,76,0.00,,,0.01,Wunderground v.1.15,2013-11-04 00:55:00,
2013-11-03 20:00:00,35.7,29.2,30.37,NW,318,0.0,0.0,77,0.00,,,0.01,Wunderground v.1.15,2013-11-04 01:00:00,
2013-11-03 20:05:00,35.3,29.1,30.37,NW,318,0.0,0.0,78,0.00,,,0.01,Wunderground v.1.15,2013-11-04 01:05:00,
2013-11-03 20:10:00,34.8,29.0,30.37,NW,318,0.0,0.0,79,0.00,,,0.01,Wunderground v.1.15,2013-11-04 01:10:00,
2013-11-03 20:15:00,34.6,29.7,30.37,NW,318,0.0,0.0,82,0.00,,,0.01,Wunderground v.1.15,2013-11-04 01:15:00,
2013-11-03 20:20:00,34.6,30.0,30.37,NW,318,0.0,0.0,83,0.00,,,0.01,Wunderground v.1.15,2013-11-04 01:20:00,
2013-11-03 20:25:00,34.3,29.7,30.37,NW,318,0.0,0.0,83,0.00,,,0.01,Wunderground v.1.15,2013-11-04 01:25:00,
2013-11-03 20:30:00,33.9,29.3,30.37,NW,318,0.0,0.0,83,0.00,,,0.01,Wunderground v.1.15,2013-11-04 01:30:00,
2013-11-03 20:35:00,33.4,29.1,30.37,NW,318,0.0,0.0,84,0.00,,,0.01,Wunderground v.1.15,2013-11-04 01:35:00,
2013-11-03 20:40:00,32.9,28.9,30.38,NW,318,0.0,0.0,85,0.00,,,0.01,Wunderground v.1.15,2013-11-04 01:40:00,
2013-11-03 20:45:00,32.8,29.1,30.38,NW,318,0.0,0.0,86,0.00,,,0.01,Wunderground v.1.15,2013-11-04 01:45:00,
2013-11-03 20:50:00,32.7,29.3,30.38,NW,318,0.0,0.0,87,0.00,,,0.01,Wunderground v.1.15,2013-11-04 01:50:00,
2013-11-03 20:55:00,32.4,29.0,30.39,NW,318,0.0,0.0,87,0.00,,,0.01,Wunderground v.1.15,2013-11-04 01:55:00,
2013-11-03 21:00:00,32.0,28.6,30.39,NW,318,0.0,0.0,87,0.00,,,0.01,Wunderground v.1.15,2013-11-04 02:00:00,
2013-11-03 21:05:00,32.1,29.2,30.39,NW,318,0.0,0.0,89,0.00,,,0.01,Wunderground v.1.15,2013-11-04 02:05:00,
2013-11-03 21:10:00,32.3,29.4,30.39,NW,318,0.0,0.0,89,0.00,,,0.01,Wunderground v.1.15,2013-11-04 02:10:00,
2013-11-03 21:15:00,32.3,29.4,30.39,NW,318,0.0,0.0,89,0.00,,,0.01,Wunderground v.1.15,2013-11-04 02:15:00,
2013-11-03 21:20:00,32.0,29.1,30.39,NW,318,0.0,0.0,89,0.00,,,0.01,Wunderground v.1.15,2013-11-04 02:20:00,
2013-11-03 21:25:00,31.7,28.8,30.39,NW,318,0.0,0.0,89,0.00,,,0.01,Wunderground v.1.15,2013-11-04 02:25:00,
2013-11-03 21:30:00,31.7,29.1,30.39,NW,318,0.0,0.0,90,0.00,,,0.01,Wunderground v.1.15,2013-11-04 02:30:00,
2013-11-03 21:35:00,31.9,29.6,30.39,NW,318,0.0,0.0,91,0.00,,,0.01,Wunderground v.1.15,2013-11-04 02:35:00,
2013-11-03 21:40:00,31.7,29.1,30.39,NW,318,0.0,0.0,90,0.00,,,0.01,Wunderground v.1.15,2013-11-04 02:40:00,
2013-11-03 21:45:00,31.4,28.8,30.38,NW,318,0.0,0.0,90,0.00,,,0.01,Wunderground v.1.15,2013-11-04 02:45:00,
2013-11-03 21:50:00,31.3,29.0,30.39,NW,318,0.0,0.0,91,0.00,,,0.01,Wunderground v.1.15,2013-11-04 02:50:00,
2013-11-03 21:55:00,31.4,29.3,30.39,NW,318,0.0,0.0,92,0.00,,,0.01,Wunderground v.1.15,2013-11-04 02:55:00,
2013-11-03 22:00:00,31.9,30.1,30.39,NW,318,0.0,0.0,93,0.00,,,0.01,Wunderground v.1.15,2013-11-04 03:00:00,
2013-11-03 22:05:00,32.1,30.0,30.38,NW,318,0.0,0.0,92,0.00,,,0.01,Wunderground v.1.15,2013-11-04 03:05:00,
2013-11-03 22:10:00,32.3,30.2,30.39,NW,318,0.0,0.0,92,0.00,,,0.01,Wunderground v.1.15,2013-11-04 03:10:00,
2013-11-03 22:15:00,32.4,30.3,30.39,NW,318,0.0,0.0,92,0.00,,,0.01,Wunderground v.1.15,2013-11-04 03:15:00,
2013-11-03 22:20:00,32.3,30.0,30.39,NW,318,0.0,0.0,91,0.00,,,0.01,Wunderground v.1.15,2013-11-04 03:20:00,
2013-11-03 22:25:00,31.8,29.5,30.39,NW,318,0.0,0.0,91,0.00,,,0.01,Wunderground v.1.15,2013-11-04 03:25:00,
2013-11-03 22:30:00,31.4,29.1,30.38,NW,318,0.0,0.0,91,0.00,,,0.01,Wunderground v.1.15,2013-11-04 03:30:00,
2013-11-03 22:35:00,30.9,28.6,30.38,NW,318,0.0,0.0,91,0.00,,,0.01,Wunderground v.1.15,2013-11-04 03:35:00,
2013-11-03 22:40:00,30.2,27.6,30.38,NW,318,0.0,0.0,90,0.00,,,0.01,Wunderground v.1.15,2013-11-04 03:40:00,
2013-11-03 22:45:00,29.9,27.9,30.39,West,278,0.0,0.0,92,0.00,,,0.01,Wunderground v.1.15,2013-11-04 03:45:00,
2013-11-03 22:50:00,29.8,27.8,30.38,West,277,0.0,0.0,92,0.00,,,0.01,Wunderground v.1.15,2013-11-04 03:50:00,
2013-11-03 22:55:00,30.1,28.3,30.38,SSE,152,0.0,3.0,93,0.00,,,0.01,Wunderground v.1.15,2013-11-04 03:55:00,
2013-11-03 23:00:00,30.2,28.4,30.38,SSE,149,0.0,0.0,93,0.00,,,0.01,Wunderground v.1.15,2013-11-04 04:00:00,
2013-11-03 23:05:00,29.9,27.9,30.38,SSE,148,0.0,1.0,92,0.00,,,0.01,Wunderground v.1.15,2013-11-04 04:05:00,
2013-11-03 23:10:00,29.9,28.1,30.38,SE,141,0.0,0.0,93,0.00,,,0.01,Wunderground v.1.15,2013-11-04 04:10:00,
2013-11-03 23:15:00,30.1,28.3,30.38,SSE,150,1.0,1.0,93,0.00,,,0.01,Wunderground v.1.15,2013-11-04 04:15:00,
2013-11-03 23:20:00,30.3,28.5,30.38,SE,145,0.0,1.0,93,0.00,,,0.01,Wunderground v.1.15,2013-11-04 04:20:00,
2013-11-03 23:25:00,30.4,28.6,30.38,SSE,155,0.0,1.0,93,0.00,,,0.01,Wunderground v.1.15,2013-11-04 04:25:00,
2013-11-03 23:30:00,30.6,29.1,30.37,SSE,153,0.0,1.0,94,0.00,,,0.01,Wunderground v.1.15,2013-11-04 04:30:00,
2013-11-03 23:35:00,31.1,29.6,30.37,SE,132,1.0,2.0,94,0.00,,,0.01,Wunderground v.1.15,2013-11-04 04:35:00,
2013-11-03 23:40:00,31.5,30.0,30.38,WNW,292,0.0,1.0,94,0.00,,,0.01,Wunderground v.1.15,2013-11-04 04:40:00,
2013-11-03 23:45:00,31.6,29.8,30.37,SSE,152,1.0,3.0,93,0.00,,,0.01,Wunderground v.1.15,2013-11-04 04:45:00,
2013-11-03 23:50:00,32.0,30.2,30.38,SE,136,3.0,3.0,93,0.00,,,0.01,Wunderground v.1.15,2013-11-04 04:50:00,
2013-11-03 23:55:00,32.3,30.2,30.38,SE,131,2.0,3.0,92,0.00,,,0.01,Wunderground v.1.15,2013-11-04 04:55:00,